Latest Weather Observations for Hobart

IDT60801

Issued at 10:05 am EST Thursday 2 October 2014 (issued every 30 minutes, with the page automatically refreshed every 10 minutes)

About weather observations | Map of weather stations | Latest weather observations for TAS | Other Formats
Station Details ID: 094029 Name: HOBART (ELLERSLIE ROAD) Lat: -42.89 Lon: 147.33 Height: 50.5 m
Data from the previous 72 hours. | See also: Recent months at Hobart
Date/Time
EST
Temp
°C
App
Temp
°C
Dew
Point
Rel
Hum
%
Delta-T
°C
Wind Press
QNH
hPa
Press
MSL
hPa
Rain
since 9 am
mm
Dir
 
Spd
km/h
Gust
km/h
Spd
kts
Gust
kts
02/10:00am 16.2 9.9 4.0 44 5.7 WSW 26 48 14 26 1012.1 1012.1 0.0
02/09:31am 16.0 9.3 3.4 43 5.8 WSW 28 50 15 27 1011.9 1011.9 0.0
02/09:30am 15.9 9.9 3.2 42 5.8 WSW 24 50 13 27 1012.0 1012.0 0.0
02/09:00am 14.6 10.2 4.8 52 4.6 WNW 17 26 9 14 1012.0 1012.0 0.0
02/08:30am 14.4 8.4 5.3 54 4.3 NNW 26 43 14 23 1011.6 1011.6 0.0
02/08:25am 14.5 8.1 5.4 54 4.3 NNW 28 43 15 23 1011.6 1011.6 0.0
02/08:00am 13.6 10.1 5.3 57 3.9 WNW 13 22 7 12 1011.7 1011.7 0.0
02/07:30am 12.9 8.0 5.2 59 3.6 NW 20 39 11 21 1011.3 1011.3 0.0
02/07:00am 12.7 9.4 4.7 58 3.7 W 11 20 6 11 1011.1 1011.1 0.0
02/06:30am 12.4 8.0 5.0 60 3.4 NW 17 28 9 15 1011.0 1011.0 0.0
02/06:00am 12.2 8.7 5.3 62 3.2 W 13 26 7 14 1010.7 1010.7 0.0
02/05:30am 12.3 7.4 5.2 62 3.3 NNW 20 37 11 20 1010.2 1010.3 0.0
02/05:00am 12.2 5.7 4.8 60 3.4 NNW 28 39 15 21 1009.6 1009.7 0.0
02/04:30am 13.1 7.6 3.8 53 4.2 W 22 39 12 21 1009.8 1009.9 0.0
02/04:00am 12.5 7.6 4.1 56 3.8 NW 19 30 10 16 1009.6 1009.7 0.0
02/03:30am 12.1 7.8 5.2 62 3.2 NW 17 30 9 16 1009.6 1009.7 0.0
02/03:00am 13.0 7.9 4.0 54 4.1 NW 20 24 11 13 1009.5 1009.6 0.0
02/02:30am 12.6 6.5 4.8 59 3.6 NW 26 35 14 19 1009.6 1009.7 0.0
02/02:00am 12.5 6.0 4.9 60 3.5 NNW 28 39 15 21 1009.6 1009.7 0.0
02/01:30am 12.9 7.2 4.7 57 3.8 NNW 24 41 13 22 1010.0 1010.1 0.0
02/01:00am 12.9 5.4 4.7 57 3.8 NW 33 54 18 29 1010.1 1010.2 0.0
02/12:30am 13.0 6.1 4.8 57 3.8 NNW 30 48 16 26 1010.7 1010.7 0.0
02/12:19am 13.2 5.9 4.5 55 4.0 NNW 32 50 17 27 1010.8 1010.8 0.0
02/12:00am 13.0 6.5 4.5 56 3.9 N 28 39 15 21 1010.9 1010.9 0.0
 
Date/Time
EST
Temp
°C
App
Temp
°C
Dew
Point
Rel
Hum
%
Delta-T
°C
Wind Press
QNH
hPa
Press
MSL
hPa
Rain
since 9 am
mm
Dir
 
Spd
km/h
Gust
km/h
Spd
kts
Gust
kts
01/11:35pm 13.3 6.6 3.8 52 4.3 N 28 46 15 25 1011.3 1011.3 0.0
01/11:30pm 13.3 7.0 3.8 52 4.3 N 26 39 14 21 1011.2 1011.2 0.0
01/11:00pm 12.9 6.1 5.2 59 3.6 N 30 46 16 25 1011.4 1011.4 0.0
01/10:56pm 12.9 6.5 5.2 59 3.6 N 28 46 15 25 1011.5 1011.5 0.0
01/10:30pm 13.0 5.5 4.5 56 3.9 N 33 46 18 25 1011.8 1011.8 0.0
01/10:00pm 12.2 4.4 4.8 60 3.4 N 35 52 19 28 1011.6 1011.6 0.0
01/09:55pm 12.2 4.8 4.8 60 3.4 N 33 52 18 28 1011.7 1011.7 0.0
01/09:30pm 11.7 2.8 4.9 63 3.1 N 41 56 22 30 1011.7 1011.7 0.0
01/09:02pm 11.5 3.3 4.7 63 3.1 N 37 56 20 30 1012.1 1012.1 0.0
01/09:00pm 11.5 3.2 4.4 61 3.2 N 37 50 20 27 1012.1 1012.1 0.0
01/08:30pm 11.2 3.9 4.3 62 3.1 N 32 48 17 26 1012.7 1012.7 0.0
01/08:03pm 11.0 3.4 4.1 62 3.1 N 33 52 18 28 1012.8 1012.8 0.0
01/08:00pm 11.0 3.7 4.3 63 3.0 N 32 48 17 26 1013.0 1013.0 0.0
01/07:41pm 11.0 3.6 4.1 62 3.1 NNW 32 50 17 27 1013.4 1013.4 0.0
01/07:30pm 11.0 3.9 3.8 61 3.2 NNW 30 43 16 23 1013.6 1013.6 0.0
01/07:00pm 11.1 4.7 3.1 58 3.5 NNW 26 39 14 21 1013.8 1013.8 0.0
01/06:30pm 11.4 5.3 2.6 54 3.8 N 24 32 13 17 1014.2 1014.2 0.0
01/06:00pm 11.6 5.5 2.6 54 3.9 NNW 24 37 13 20 1014.5 1014.5 0.0
01/05:30pm 12.1 5.9 2.1 50 4.3 NNW 24 33 13 18 1014.7 1014.7 0.0
01/05:00pm 13.3 7.4 1.4 44 5.1 NW 22 37 12 20 1014.4 1014.4 0.0
01/04:30pm 13.7 8.1 1.1 42 5.4 NW 20 35 11 19 1014.1 1014.1 0.0
01/04:00pm 14.4 7.5 0.2 38 6.0 WNW 26 39 14 21 1014.0 1014.0 0.0
01/03:30pm 14.4 8.7 -0.5 36 6.2 WNW 19 28 10 15 1013.9 1013.9 0.0
01/03:00pm 13.0 6.5 0.0 41 5.4 WNW 24 39 13 21 1013.8 1013.8 0.0
01/02:30pm 13.3 9.0 0.8 42 5.3 WSW 13 26 7 14 1014.0 1014.0 0.0
01/02:00pm 13.0 5.0 0.7 43 5.2 SW 32 44 17 24 1013.6 1013.6 0.0
01/01:30pm 14.2 9.0 -0.1 37 6.0 SSW 17 32 9 17 1013.6 1013.6 0.0
01/01:18pm 15.4 8.1 -0.2 34 6.6 WNW 28 41 15 22 1013.3 1013.3 0.0
01/01:00pm 14.3 9.7 1.4 41 5.6 SSW 15 20 8 11 1013.3 1013.3 0.0
01/12:30pm 14.3 9.0 1.7 42 5.5 SW 19 30 10 16 1013.9 1013.9 0.0
01/12:00pm 13.4 6.2 1.0 43 5.3 SW 28 46 15 25 1013.8 1013.8 0.0
01/11:49am 14.0 6.6 -0.8 36 6.1 WSW 28 52 15 28 1013.9 1013.9 0.0
01/11:30am 13.5 6.9 -0.6 38 5.8 W 24 39 13 21 1014.0 1014.0 0.0
01/11:00am 13.9 8.0 1.7 43 5.3 SW 22 37 12 20 1013.9 1013.9 0.0
01/10:30am 13.7 8.6 0.8 41 5.5 NW 17 28 9 15 1013.6 1013.6 0.0
01/10:00am 12.4 8.0 0.1 43 5.1 S 13 26 7 14 1013.9 1013.9 0.0
01/09:30am 10.0 6.5 1.3 54 3.6 W 9 15 5 8 1014.1 1014.1 0.0
01/09:00am 10.4 5.9 0.0 48 4.2 N 13 22 7 12 1013.7 1013.7 5.4
01/08:30am 9.7 4.1 0.9 54 3.6 NW 20 28 11 15 1013.5 1013.5 5.4
01/08:00am 10.2 5.1 0.7 51 3.9 NNW 17 20 9 11 1013.0 1013.0 5.4
01/07:30am 8.9 3.4 0.8 57 3.3 NNW 19 24 10 13 1012.6 1012.6 5.4
01/07:00am 8.1 2.9 0.3 58 3.1 NNW 17 28 9 15 1012.0 1012.0 5.4
01/06:30am 7.9 3.7 -0.6 55 3.3 W 11 32 6 17 1011.3 1011.3 5.4
01/06:00am 6.4 2.1 1.1 69 2.1 SW 13 22 7 12 1010.8 1010.8 5.4
01/05:30am 6.8 0.5 1.6 69 2.1 SW 24 39 13 21 1010.1 1010.2 5.2
01/05:24am 7.0 -0.2 1.0 65 2.4 SW 28 50 15 27 1010.0 1010.1 5.2
01/05:00am 6.8 1.3 0.5 64 2.5 SW 19 30 10 16 1008.9 1009.0 5.0
01/04:30am 6.7 1.2 0.9 66 2.3 SW 19 32 10 17 1008.6 1008.7 5.0
01/04:00am 7.1 2.6 -0.1 60 2.8 SW 13 26 7 14 1007.8 1007.9 5.0
01/03:30am 6.1 2.3 1.9 74 1.7 E 11 20 6 11 1006.9 1007.0 5.0
01/03:00am 5.6 2.8 2.2 79 1.4 ESE 6 13 3 7 1006.6 1006.7 5.0
01/02:30am 5.5 2.1 1.8 77 1.5 NNW 9 17 5 9 1006.6 1006.7 5.0
01/02:00am 4.9 -0.5 2.4 84 1.0 W 20 37 11 20 1005.9 1006.0 5.0
01/01:56am 5.0 -1.9 2.3 83 1.1 WSW 28 37 15 20 1006.4 1006.5 4.6
01/01:50am 5.0 -3.6 2.8 86 0.9 SW 37 56 20 30 1006.7 1006.8 3.6
01/01:30am 7.0 0.6 0.7 64 2.5 WSW 24 43 13 23 1006.0 1006.1 1.8
01/01:00am 7.4 3.2 -0.6 57 3.1 NNE 11 22 6 12 1004.8 1004.9 1.8
01/12:30am 7.7 4.5 -0.5 56 3.2 ENE 6 13 3 7 1004.7 1004.8 1.8
01/12:00am 8.4 2.2 -2.9 45 4.2 WSW 20 46 11 25 1004.0 1004.1 1.8
 
Date/Time
EST
Temp
°C
App
Temp
°C
Dew
Point
Rel
Hum
%
Delta-T
°C
Wind Press
QNH
hPa
Press
MSL
hPa
Rain
since 9 am
mm
Dir
 
Spd
km/h
Gust
km/h
Spd
kts
Gust
kts
30/11:37pm 8.8 1.1 -3.0 43 4.4 W 28 50 15 27 1003.2 1003.3 1.8
30/11:30pm 8.5 2.5 -2.8 45 4.2 W 19 33 10 18 1003.3 1003.4 1.8
30/11:07pm 8.5 0.9 -2.0 47 4.0 WSW 28 57 15 31 1002.6 1002.7 1.8
30/11:00pm 8.6 3.0 -2.6 45 4.2 WSW 17 41 9 22 1002.5 1002.6 1.8
30/10:30pm 8.0 3.5 -0.1 56 3.2 SW 13 19 7 10 1002.4 1002.5 1.8
30/10:00pm 8.1 3.3 0.1 57 3.2 S 15 24 8 13 1002.0 1002.0 1.8
30/09:30pm 8.9 4.6 -1.4 48 4.0 ENE 11 20 6 11 1001.3 1001.3 1.8
30/09:00pm 9.0 5.2 -0.6 51 3.8 WNW 9 17 5 9 1001.1 1001.1 1.8
30/08:30pm 9.2 4.3 -0.6 50 3.9 S 15 32 8 17 1000.5 1000.5 1.8
30/08:00pm 9.6 5.8 -1.0 47 4.2 SW 9 26 5 14 999.6 999.6 1.8
30/07:30pm 9.2 5.0 -0.6 50 3.9 SE 11 28 6 15 998.9 998.9 1.8
30/07:00pm 9.1 5.7 1.7 60 3.1 WNW 9 20 5 11 998.2 998.2 1.8
30/06:30pm 9.3 5.2 2.5 62 2.9 SSW 13 24 7 13 997.6 997.6 1.8
30/06:00pm 10.2 6.5 4.2 66 2.7 SW 13 24 7 13 997.0 997.0 1.8
30/05:30pm 11.8 8.3 5.6 66 2.9 SSW 13 20 7 11 995.7 995.7 1.6
30/05:00pm 12.3 10.4 6.5 67 2.8 E 6 20 3 11 994.7 994.7 1.6
30/04:30pm 12.4 9.6 7.1 70 2.6 W 11 17 6 9 994.0 994.0 1.6
30/04:00pm 12.2 6.7 6.1 66 2.9 N 24 35 13 19 993.4 993.4 1.6
30/03:30pm 13.0 8.0 6.4 64 3.2 N 22 32 12 17 993.2 993.2 1.6
30/03:00pm 11.5 6.7 7.4 76 2.0 N 22 32 12 17 993.8 993.8 1.6
30/02:30pm 12.1 8.0 7.9 75 2.1 N 19 28 10 15 994.0 994.0 1.2
30/02:00pm 12.3 10.0 8.9 80 1.7 S 11 17 6 9 993.5 993.5 1.2
30/01:30pm 17.0 12.2 7.3 53 4.9 NW 22 33 12 18 992.8 992.8 0.0
30/01:00pm 17.1 11.5 7.2 52 5.0 NW 26 39 14 21 992.4 992.4 0.0
30/12:30pm 16.7 10.7 6.9 52 4.9 NW 28 44 15 24 992.8 992.8 0.0
30/12:00pm 17.0 10.4 7.8 54 4.7 NW 32 44 17 24 993.2 993.2 0.0
30/11:30am 16.1 10.2 10.5 69 3.0 WNW 32 52 17 28 993.9 993.9 0.0
30/11:00am 18.9 11.3 7.4 47 5.9 NW 37 67 20 36 993.6 993.6 0.0
30/10:30am 19.1 12.0 5.6 41 6.6 NW 32 52 17 28 993.8 993.8 0.0
30/10:00am 18.9 9.4 4.1 37 7.1 NW 43 65 23 35 994.1 994.1 0.0
30/09:30am 19.0 11.6 4.0 37 7.1 NW 32 67 17 36 994.5 994.5 0.0
30/09:00am 17.5 9.7 3.1 38 6.7 NW 33 61 18 33 994.9 994.9 0.0
30/08:30am 16.7 7.4 3.1 40 6.2 NW 41 67 22 36 995.4 995.4 0.0
30/08:00am 15.7 6.0 3.1 43 5.8 NW 43 72 23 39 995.8 995.8 0.0
30/07:37am 14.8 7.7 3.8 47 5.0 NNW 30 72 16 39 996.1 996.1 0.0
30/07:30am 14.3 6.8 3.6 48 4.9 NNW 32 54 17 29 996.1 996.1 0.0
30/07:00am 14.3 5.8 3.3 47 5.0 NNW 37 61 20 33 996.1 996.1 0.0
30/06:31am 13.6 5.5 3.5 50 4.6 NNW 35 56 19 30 996.6 996.6 0.0
30/06:30am 13.6 5.5 3.5 50 4.6 NNW 35 52 19 28 996.6 996.6 0.0
30/06:08am 13.2 6.5 3.8 53 4.3 NNW 28 48 15 26 996.9 996.9 0.0
30/06:00am 13.1 6.8 3.9 53 4.2 NNW 26 43 14 23 997.1 997.1 0.0
30/05:31am 13.9 7.2 3.6 50 4.7 NNW 28 46 15 25 997.5 997.5 0.0
30/05:30am 14.0 7.7 3.5 49 4.8 NNW 26 46 14 25 997.6 997.6 0.0
30/05:00am 14.2 7.1 3.8 49 4.8 NNW 30 50 16 27 997.7 997.7 0.0
30/04:30am 14.2 5.8 3.8 49 4.7 NW 37 65 20 35 998.1 998.1 0.0
30/04:00am 14.2 6.5 3.5 48 4.9 NW 33 52 18 28 998.4 998.4 0.0
30/03:30am 14.5 6.3 2.7 45 5.3 NW 35 67 19 36 998.7 998.7 0.0
30/03:00am 14.5 6.0 3.0 46 5.2 NW 37 57 20 31 998.9 998.9 0.0
30/02:33am 14.7 4.1 3.0 45 5.3 NW 48 80 26 43 999.1 999.1 0.0
30/02:30am 14.5 4.9 3.3 47 5.1 NW 43 61 23 33 999.2 999.2 0.0
30/02:00am 14.6 4.5 3.5 47 5.1 NW 46 72 25 39 999.5 999.5 0.0
30/01:30am 14.8 3.2 3.7 47 5.1 NW 54 78 29 42 999.9 999.9 0.0
30/01:00am 14.7 5.6 3.9 48 5.0 NW 41 65 22 35 1000.3 1000.3 0.0
30/12:30am 14.8 5.1 3.7 47 5.1 NW 44 72 24 39 1000.8 1000.8 0.0
30/12:00am 14.7 6.3 3.6 47 5.1 NW 37 57 20 31 1001.2 1001.2 0.0
 
Date/Time
EST
Temp
°C
App
Temp
°C
Dew
Point
Rel
Hum
%
Delta-T
°C
Wind Press
QNH
hPa
Press
MSL
hPa
Rain
since 9 am
mm
Dir
 
Spd
km/h
Gust
km/h
Spd
kts
Gust
kts
29/11:30pm 14.4 6.9 3.4 47 5.0 NW 32 54 17 29 1001.4 1001.4 0.0
29/11:00pm 14.4 5.9 3.4 47 5.0 NW 37 63 20 34 1001.7 1001.7 0.0
29/10:36pm 14.3 6.2 3.3 47 5.0 NNW 35 54 19 29 1001.9 1001.9 0.0
29/10:30pm 14.3 6.6 3.3 47 5.0 NW 33 48 18 26 1002.0 1002.0 0.0
29/10:00pm 14.0 6.5 3.2 48 4.9 NW 32 56 17 30 1002.3 1002.4 0.0
29/09:30pm 13.9 6.1 3.0 47 4.9 NNW 33 52 18 28 1002.4 1002.5 0.0
29/09:00pm 13.7 6.0 2.4 46 5.0 NNW 32 57 17 31 1002.7 1002.8 0.0
29/08:30pm 13.7 6.3 2.1 45 5.1 NNW 30 50 16 27 1002.4 1002.5 0.0
29/08:00pm 14.3 4.3 1.2 41 5.7 NW 43 67 23 36 1002.7 1002.8 0.0
29/07:30pm 14.7 5.3 0.1 37 6.2 NW 39 61 21 33 1002.3 1002.4 0.0
29/07:00pm 14.9 6.9 1.5 40 5.9 NW 33 61 18 33 1002.5 1002.6 0.0
29/06:30pm 15.5 7.0 1.1 37 6.3 NW 35 57 19 31 1002.3 1002.4 0.0
29/06:00pm 16.0 7.6 1.3 37 6.5 NW 35 65 19 35 1002.5 1002.6 0.0
29/05:38pm 16.3 9.2 1.4 36 6.6 NW 28 50 15 27 1002.2 1002.3 0.0
29/05:30pm 16.5 10.2 1.8 37 6.6 NW 24 39 13 21 1002.2 1002.3 0.0
29/05:00pm 17.1 8.6 1.1 34 7.1 NW 35 57 19 31 1001.4 1001.4 0.0
29/04:30pm 17.2 9.3 1.3 34 7.1 NW 32 50 17 27 1001.5 1001.5 0.0
29/04:00pm 17.5 9.0 0.8 32 7.4 NW 35 56 19 30 1001.8 1001.8 0.0
29/03:30pm 17.7 7.6 0.4 31 7.6 NW 43 72 23 39 1001.9 1001.9 0.0
29/03:00pm 17.8 8.3 -0.8 28 8.0 NW 39 59 21 32 1002.3 1002.4 0.0
29/02:30pm 18.2 8.9 0.3 30 7.8 NW 39 61 21 33 1002.3 1002.4 0.0
29/02:00pm 18.6 10.3 -0.1 28 8.2 NW 33 56 18 30 1002.4 1002.5 0.0
29/01:31pm 17.7 8.6 -0.3 29 7.8 NW 37 56 20 30 1002.9 1003.0 0.0
29/01:30pm 17.9 8.6 0.4 30 7.7 NW 39 56 21 30 1003.0 1003.1 0.0
29/01:02pm 18.0 10.5 1.3 32 7.5 NNW 30 54 16 29 1003.1 1003.2 0.0
29/01:00pm 17.4 9.9 1.3 34 7.2 NNW 30 46 16 25 1003.1 1003.2 0.0
29/12:58pm 17.5 10.5 1.8 35 7.1 NNW 28 46 15 25 1003.1 1003.2 0.0
29/12:46pm 17.7 11.4 1.8 34 7.2 WNW 24 35 13 19 1003.2 1003.3 0.0
29/12:31pm 17.2 8.1 -0.5 30 7.6 NNW 37 56 20 30 1003.5 1003.6 0.0
29/12:30pm 17.3 8.2 -0.7 29 7.7 NNW 37 52 20 28 1003.4 1003.5 0.0
29/12:00pm 17.1 11.5 1.1 34 7.1 NNW 20 39 11 21 1003.6 1003.7 0.0
29/11:34am 17.4 10.0 1.9 35 7.0 NNW 30 48 16 26 1003.3 1003.4 0.0
29/11:30am 16.8 8.5 1.9 36 6.7 NNW 35 48 19 26 1003.1 1003.2 0.0
29/11:07am 16.7 9.7 1.8 36 6.7 NNW 28 46 15 25 1003.0 1003.1 0.0
29/11:00am 16.3 10.4 1.4 36 6.6 N 22 28 12 15 1003.1 1003.2 0.0
29/10:30am 15.8 9.5 1.3 37 6.4 NW 24 43 13 23 1003.2 1003.3 0.0

Other Formats:

Comma delimited format used in spreadsheet applications
http://www.bom.gov.au/fwo/IDT60801/IDT60801.94970.axf

JavaScript Object Notation format (JSON) in row-major order
http://www.bom.gov.au/fwo/IDT60801/IDT60801.94970.json